SMCT weather

Cottica Airstrip
Lawa Cottica, Sipaliwini, Suriname

Public forecast

Using degrees Celsius for public forecast. Weather courtesy of forecast.io.

Closest aviation weather report (METAR) to Cottica Airstrip

Closest report is Johan Adolf Pengel International Airport, 112.0 nm (207.3 km) NNW. Retrieved 2019/11/17 03:00 UTC (47 minutes ago):

SMJP 170300Z 10003KT 9999 SCT030 26/25 Q1008 NOSIG

Closest aviation forecast (TAF) to Cottica Airstrip

Closest forecast is Johan Adolf Pengel International Airport, 112.0 nm (207.3 km) NNW. Retrieved 2019-11-17 00:09 UTC (4 hours ago):

TAF TAF SMJP 162200Z 1700/1724 07005KT CAVOK TX34/1718Z TN23/1709Z PROB40 TEMPO 1708/1710 00000KT 0900 FG BKN001 FM171200 09008KT 9999 SCT012 PROB30 TEMPO 1717/1721 4000 SHRA TSRA FEW015CB SCT018